Terminal Aerodrome Forecast
Issued by NWS Cleveland, OH

Home | Current Version | Previous Version | Graphics & Text | Print | Product List | Glossary Off
Versions: 1 2 3 4 5 6 7 8 9 10 11 12 13 14 15 16 17 18 19 20 21 22 23 24

237
FTUS41 KCLE 032335
TAFYNG
TAF
KYNG 032335Z 0400/0424 33007KT P6SM SCT040 BKN100
     FM041100 20010KT P6SM BKN040 OVC080
     FM041900 20012KT P6SM -SHRA OVC035=

USA.gov is the U.S. government's official web portal to all federal, state and local government web resources and services.